createdAt,value
2022-12-13T00:01:29.495Z,4.63
2022-12-13T00:03:59.185Z,4.91
2022-12-13T00:06:27.457Z,5.02
2022-12-13T00:08:55.648Z,6.93
2022-12-13T00:11:23.521Z,6.77
2022-12-13T00:13:52.955Z,5.26
2022-12-13T00:16:23.812Z,4.55
2022-12-13T00:18:53.993Z,6.48
2022-12-13T00:21:22.880Z,5.78
2022-12-13T00:23:51.746Z,4.72
2022-12-13T00:26:22.303Z,6.19
2022-12-13T00:28:52.923Z,5.29
2022-12-13T00:34:11.766Z,4.71
2022-12-13T00:36:39.543Z,4.53
2022-12-13T00:39:07.422Z,6.41
2022-12-13T00:41:37.222Z,5.37
2022-12-13T00:44:06.755Z,4.44
2022-12-13T00:46:34.587Z,5.83
2022-12-13T00:49:02.832Z,5.55
2022-12-13T00:51:32.218Z,4.21
2022-12-13T00:54:00.950Z,4.50
2022-12-13T00:56:30.264Z,4.12
2022-12-13T00:58:58.539Z,4.49
2022-12-13T01:01:28.971Z,3.95
2022-12-13T01:03:58.510Z,4.49
2022-12-13T01:06:29.674Z,4.51
2022-12-13T01:08:57.599Z,5.01
2022-12-13T01:11:26.306Z,5.43
2022-12-13T01:13:54.074Z,4.87
2022-12-13T01:16:22.084Z,5.25
2022-12-13T01:18:51.337Z,5.97
2022-12-13T01:21:20.744Z,4.73
2022-12-13T01:23:50.758Z,4.68
2022-12-13T01:26:21.007Z,4.04
2022-12-13T01:28:49.341Z,5.46
2022-12-13T01:31:20.230Z,4.57
2022-12-13T01:33:48.184Z,4.42
2022-12-13T01:36:19.184Z,6.25
2022-12-13T01:38:47.128Z,4.26
2022-12-13T01:41:17.796Z,4.48
2022-12-13T01:43:55.757Z,4.37
2022-12-13T01:46:23.937Z,3.84
2022-12-13T01:48:56.668Z,4.52
2022-12-13T01:51:29.998Z,4.50
2022-12-13T01:53:59.384Z,4.98
2022-12-13T01:56:30.783Z,5.20
2022-12-13T01:58:59.160Z,4.60
2022-12-13T02:01:27.228Z,4.70
2022-12-13T02:03:55.305Z,4.32
2022-12-13T02:06:30.862Z,5.65
2022-12-13T02:08:59.130Z,4.52
2022-12-13T02:11:28.382Z,4.32
2022-12-13T02:13:56.209Z,5.39
2022-12-13T02:16:35.088Z,4.93
2022-12-13T02:19:22.975Z,5.53
2022-12-13T02:21:59.924Z,6.00
2022-12-13T02:24:53.826Z,5.34
2022-12-13T02:27:42.647Z,5.94
2022-12-13T02:30:24.500Z,4.79
2022-12-13T02:33:27.424Z,5.79
2022-12-13T02:36:05.761Z,5.46
2022-12-13T02:38:38.514Z,5.19
2022-12-13T02:41:15.876Z,5.00
2022-12-13T02:43:48.407Z,6.02
2022-12-13T02:46:18.908Z,6.03
2022-12-13T02:48:47.941Z,5.47
2022-12-13T02:51:16.821Z,4.72
2022-12-13T02:53:45.027Z,5.50
2022-12-13T02:56:13.735Z,5.02
2022-12-13T02:58:44.036Z,5.19
2022-12-13T03:01:40.400Z,5.24
2022-12-13T03:04:14.460Z,5.54
2022-12-13T03:06:49.801Z,5.97
2022-12-13T03:09:29.411Z,5.75
2022-12-13T03:12:27.031Z,5.02
2022-12-13T03:14:59.708Z,5.29
2022-12-13T03:17:30.230Z,5.07
2022-12-13T03:19:58.216Z,4.66
2022-12-13T03:22:26.001Z,4.71
2022-12-13T03:24:53.893Z,5.65
2022-12-13T03:27:21.789Z,6.18
2022-12-13T03:29:49.554Z,5.03
2022-12-13T03:32:17.418Z,4.93
2022-12-13T03:34:49.656Z,4.04
2022-12-13T03:37:20.086Z,5.14
2022-12-13T03:39:48.005Z,4.21
2022-12-13T03:42:16.201Z,4.47
2022-12-13T03:44:44.055Z,5.14
2022-12-13T03:47:11.927Z,4.76
2022-12-13T03:49:39.722Z,4.86
2022-12-13T03:52:08.883Z,4.77
2022-12-13T03:54:36.741Z,5.12
2022-12-13T03:57:05.916Z,5.05
2022-12-13T03:59:33.751Z,5.20
2022-12-13T04:02:01.545Z,5.17
2022-12-13T04:04:29.663Z,6.62
2022-12-13T04:06:57.486Z,6.81
2022-12-13T04:09:26.782Z,6.28
2022-12-13T04:12:11.918Z,4.66
2022-12-13T04:14:39.803Z,4.90
2022-12-13T04:17:07.653Z,5.54
2022-12-13T04:19:35.453Z,5.02
2022-12-13T04:22:03.257Z,4.95
2022-12-13T04:24:32.870Z,5.45
2022-12-13T04:27:01.887Z,5.17
2022-12-13T04:29:34.334Z,5.75
2022-12-13T04:32:03.239Z,4.54
2022-12-13T04:34:36.936Z,6.16
2022-12-13T04:37:05.828Z,6.72
2022-12-13T04:39:35.031Z,5.86
2022-12-13T04:42:02.950Z,6.22
2022-12-13T04:44:36.596Z,5.14
2022-12-13T04:47:05.256Z,6.98
2022-12-13T04:49:33.763Z,7.21
2022-12-13T04:52:02.177Z,6.15
2022-12-13T04:54:36.305Z,4.80
2022-12-13T04:57:08.493Z,4.28
2022-12-13T04:59:37.052Z,5.53
2022-12-13T05:02:05.724Z,7.00
2022-12-13T05:04:34.308Z,5.10
2022-12-13T05:07:02.221Z,6.31
2022-12-13T05:09:30.285Z,5.41
2022-12-13T05:12:01.362Z,5.42
2022-12-13T05:14:32.029Z,6.76
2022-12-13T05:17:00.235Z,7.29
2022-12-13T05:19:31.124Z,5.86
2022-12-13T05:22:01.680Z,6.55
2022-12-13T05:24:30.790Z,6.34
2022-12-13T05:26:58.732Z,7.31
2022-12-13T05:29:27.509Z,5.74
2022-12-13T05:31:56.771Z,6.18
2022-12-13T05:34:24.576Z,5.75
2022-12-13T05:36:52.643Z,4.83
2022-12-13T05:39:27.982Z,6.67
2022-12-13T05:42:01.829Z,6.99
2022-12-13T05:44:31.654Z,7.52
2022-12-13T05:47:02.236Z,5.72
2022-12-13T05:49:32.014Z,5.62
2022-12-13T05:52:00.037Z,7.45
2022-12-13T05:54:27.838Z,6.97
2022-12-13T05:56:55.867Z,5.41
2022-12-13T05:59:23.624Z,6.46
2022-12-13T06:01:53.977Z,5.50
2022-12-13T06:04:23.569Z,5.18
2022-12-13T06:06:52.163Z,4.72
2022-12-13T06:09:20.278Z,5.12
2022-12-13T06:11:48.419Z,5.89
2022-12-13T06:14:21.513Z,5.68
2022-12-13T06:16:51.500Z,4.91
2022-12-13T06:19:19.620Z,5.95
2022-12-13T06:21:48.839Z,6.70
2022-12-13T06:24:17.805Z,5.77
2022-12-13T06:26:46.357Z,5.02
2022-12-13T06:29:23.167Z,5.10
2022-12-13T06:32:01.079Z,5.45
2022-12-13T06:34:31.554Z,6.03
2022-12-13T06:37:00.981Z,5.63
2022-12-13T06:39:32.910Z,5.55
2022-12-13T06:42:02.921Z,5.13
2022-12-13T06:44:30.697Z,4.10
2022-12-13T06:47:11.551Z,4.43
2022-12-13T06:49:42.457Z,4.42
2022-12-13T06:52:13.014Z,4.19
2022-12-13T06:54:41.587Z,5.22
2022-12-13T06:57:09.639Z,4.28
2022-12-13T06:59:37.871Z,6.24
2022-12-13T07:02:06.665Z,6.36
2022-12-13T07:04:52.421Z,5.93
2022-12-13T07:07:21.740Z,5.96
2022-12-13T07:09:49.541Z,5.26
2022-12-13T07:12:17.338Z,5.22
2022-12-13T07:14:45.191Z,5.65
2022-12-13T07:17:13.001Z,6.18
2022-12-13T07:20:01.337Z,5.16
2022-12-13T07:22:34.658Z,5.03
2022-12-13T07:25:04.868Z,6.43
2022-12-13T07:27:32.875Z,6.08
2022-12-13T07:30:00.787Z,5.64
2022-12-13T07:32:28.633Z,6.03
2022-12-13T07:34:56.537Z,5.65
2022-12-13T07:37:29.296Z,6.72
2022-12-13T07:40:04.080Z,6.99
2022-12-13T07:42:32.817Z,6.12
2022-12-13T07:45:00.673Z,6.23
2022-12-13T07:47:30.480Z,7.14
2022-12-13T07:49:58.655Z,7.25
2022-12-13T07:52:26.439Z,7.62
2022-12-13T07:54:54.298Z,7.48
2022-12-13T07:57:23.516Z,6.24
2022-12-13T07:59:51.290Z,6.80
2022-12-13T08:02:19.158Z,5.66
2022-12-13T08:04:47.065Z,5.96
2022-12-13T08:07:25.310Z,5.71
2022-12-13T08:09:53.482Z,6.12
2022-12-13T08:12:22.716Z,6.17
2022-12-13T08:14:53.167Z,6.47
2022-12-13T08:17:22.174Z,7.86
2022-12-13T08:19:49.943Z,7.28
2022-12-13T08:22:24.285Z,6.91
2022-12-13T08:24:52.448Z,6.25
2022-12-13T08:27:20.267Z,6.83
2022-12-13T08:29:48.340Z,6.10
2022-12-13T08:32:17.793Z,6.03
2022-12-13T08:34:46.528Z,5.86
2022-12-13T08:37:14.502Z,7.38
2022-12-13T08:39:42.454Z,7.97
2022-12-13T08:42:15.866Z,8.49
2022-12-13T08:44:46.816Z,6.83
2022-12-13T08:47:24.367Z,5.18
2022-12-13T08:50:01.397Z,5.41
2022-12-13T08:52:31.949Z,5.39
2022-12-13T08:55:07.521Z,5.41
2022-12-13T08:57:36.780Z,5.51
2022-12-13T09:00:05.327Z,6.01
2022-12-13T09:02:38.065Z,6.68
2022-12-13T09:05:09.724Z,7.57
2022-12-13T09:07:39.542Z,6.74
2022-12-13T09:10:25.478Z,6.38
2022-12-13T09:13:01.337Z,6.84
2022-12-13T09:15:34.374Z,6.85
2022-12-13T09:18:04.509Z,7.11
2022-12-13T09:20:41.102Z,6.88
2022-12-13T09:23:14.063Z,7.86
2022-12-13T09:26:05.969Z,6.27
2022-12-13T09:28:35.027Z,7.91
2022-12-13T09:31:03.620Z,8.15
2022-12-13T09:33:31.548Z,8.09
2022-12-13T09:36:01.339Z,7.48
2022-12-13T09:38:29.708Z,7.07
2022-12-13T09:40:59.561Z,7.75
2022-12-13T09:43:33.423Z,7.78
2022-12-13T09:46:12.992Z,6.79
2022-12-13T09:48:52.182Z,7.05
2022-12-13T09:51:28.800Z,7.69
2022-12-13T09:54:12.252Z,7.51
2022-12-13T09:56:40.148Z,7.77
2022-12-13T09:59:13.976Z,7.24
2022-12-13T10:01:41.963Z,7.07
2022-12-13T10:04:14.597Z,7.70
2022-12-13T10:06:43.770Z,7.10
2022-12-13T10:09:14.171Z,7.41
2022-12-13T10:11:50.673Z,7.89
2022-12-13T10:14:23.036Z,6.97
2022-12-13T10:16:53.264Z,8.30
2022-12-13T10:19:29.520Z,8.07
2022-12-13T10:22:01.299Z,7.68
2022-12-13T10:24:37.090Z,7.60
2022-12-13T10:27:12.900Z,7.67
2022-12-13T10:30:02.624Z,6.00
2022-12-13T10:32:37.906Z,5.29
2022-12-13T10:35:17.886Z,7.95
2022-12-13T10:37:47.010Z,8.15
2022-12-13T10:40:32.371Z,7.84
2022-12-13T10:43:14.595Z,7.94
2022-12-13T10:45:43.568Z,8.55
2022-12-13T10:48:21.007Z,7.83
2022-12-13T10:50:58.758Z,8.98
2022-12-13T10:53:31.326Z,7.82
2022-12-13T10:56:02.258Z,9.04
2022-12-13T10:58:39.323Z,6.73
2022-12-13T11:01:13.037Z,8.00
2022-12-13T11:03:41.216Z,6.95
2022-12-13T11:06:14.362Z,7.73
2022-12-13T11:08:43.616Z,7.82
2022-12-13T11:11:12.394Z,9.32
2022-12-13T11:13:43.148Z,9.65
2022-12-13T11:16:22.154Z,9.82
2022-12-13T11:18:53.623Z,9.39
2022-12-13T11:21:25.650Z,7.79
2022-12-13T11:23:55.921Z,8.36
2022-12-13T11:26:29.970Z,7.83
2022-12-13T11:29:10.403Z,8.71
2022-12-13T11:31:46.974Z,9.37
2022-12-13T11:34:21.461Z,8.73
2022-12-13T11:36:53.314Z,8.39
2022-12-13T11:39:29.227Z,9.23
2022-12-13T11:42:00.375Z,9.17
2022-12-13T11:44:34.069Z,9.28
2022-12-13T11:47:02.415Z,8.68
2022-12-13T11:49:38.463Z,7.69
2022-12-13T11:52:10.975Z,8.95
2022-12-13T11:54:48.678Z,9.70
2022-12-13T11:57:26.378Z,10.15
2022-12-13T12:00:02.468Z,8.44
2022-12-13T12:02:35.121Z,6.94
2022-12-13T12:05:06.059Z,7.78
2022-12-13T12:07:38.324Z,8.52
2022-12-13T12:10:19.129Z,7.37
2022-12-13T12:12:50.584Z,8.00
2022-12-13T12:15:26.681Z,9.03
2022-12-13T12:17:55.508Z,9.89
2022-12-13T12:20:28.580Z,8.34
2022-12-13T12:23:03.148Z,8.46
2022-12-13T12:25:38.952Z,9.56
2022-12-13T12:28:18.195Z,9.55
2022-12-13T12:30:52.423Z,10.07
2022-12-13T12:33:26.119Z,10.00
2022-12-13T12:36:05.397Z,10.29
2022-12-13T12:38:49.585Z,10.08
2022-12-13T12:41:29.923Z,8.80
2022-12-13T12:44:08.651Z,9.00
2022-12-13T12:47:09.201Z,8.78
2022-12-13T12:50:01.911Z,8.37
2022-12-13T12:52:38.855Z,8.55
2022-12-13T12:55:13.019Z,8.97
2022-12-13T12:57:49.200Z,9.18
2022-12-13T13:00:19.094Z,9.34
2022-12-13T13:02:51.203Z,8.71
2022-12-13T13:05:23.976Z,8.45
2022-12-13T13:07:58.554Z,8.98
2022-12-13T13:10:27.523Z,8.98
2022-12-13T13:13:11.249Z,8.81
2022-12-13T13:15:57.607Z,7.84
2022-12-13T13:18:50.143Z,8.05
2022-12-13T13:21:48.241Z,7.74
2022-12-13T13:24:22.449Z,8.57
2022-12-13T13:26:52.649Z,7.46
2022-12-13T13:29:43.897Z,7.30
2022-12-13T13:32:30.443Z,7.54
2022-12-13T13:35:54.352Z,8.11
2022-12-13T13:38:44.944Z,8.93
2022-12-13T13:41:40.984Z,8.95
2022-12-13T13:44:34.254Z,9.48
2022-12-13T13:47:13.549Z,8.03
2022-12-13T13:49:48.536Z,8.81
2022-12-13T13:52:27.402Z,9.35
2022-12-13T13:55:29.685Z,9.34
2022-12-13T13:58:30.916Z,9.07
2022-12-13T14:01:34.294Z,9.04
2022-12-13T14:04:38.856Z,8.31
2022-12-13T14:07:27.191Z,8.67
2022-12-13T14:10:06.497Z,9.26
2022-12-13T14:13:13.896Z,9.35
2022-12-13T14:16:05.337Z,9.33
2022-12-13T14:19:09.014Z,9.44
2022-12-13T14:22:00.238Z,9.26
2022-12-13T14:24:40.007Z,9.34
2022-12-13T14:27:18.436Z,9.39
2022-12-13T14:29:48.308Z,9.38
2022-12-13T14:32:28.616Z,9.43
2022-12-13T14:34:56.930Z,9.36
2022-12-13T14:37:30.474Z,9.49
2022-12-13T14:39:58.892Z,9.39
2022-12-13T14:42:29.723Z,7.91
2022-12-13T14:45:14.343Z,8.37
2022-12-13T14:47:42.995Z,8.75
2022-12-13T14:50:12.994Z,8.95
2022-12-13T14:52:42.233Z,8.88
2022-12-13T14:55:24.974Z,9.13
2022-12-13T14:57:54.946Z,9.18
2022-12-13T15:00:28.176Z,9.13
2022-12-13T15:02:59.787Z,9.08
2022-12-13T15:05:29.510Z,9.12
2022-12-13T15:07:58.918Z,9.09
2022-12-13T15:10:36.159Z,9.06
2022-12-13T15:13:04.625Z,8.94
2022-12-13T15:15:35.927Z,8.88
2022-12-13T15:18:08.866Z,8.87
2022-12-13T15:20:42.235Z,8.85
2022-12-13T15:23:26.153Z,8.73
2022-12-13T15:26:00.656Z,8.69
2022-12-13T15:28:32.083Z,8.71
2022-12-13T15:31:00.910Z,8.65
2022-12-13T15:33:36.568Z,8.60
2022-12-13T15:36:10.711Z,8.48
2022-12-13T15:38:44.952Z,8.31
2022-12-13T15:41:18.907Z,8.22
2022-12-13T15:43:48.654Z,8.08
2022-12-13T15:46:25.273Z,7.92
2022-12-13T15:48:54.139Z,7.72
2022-12-13T15:51:29.576Z,7.63
2022-12-13T15:54:08.241Z,7.57
2022-12-13T15:56:37.875Z,7.43
2022-12-13T15:59:07.764Z,7.35
2022-12-13T16:01:37.394Z,7.06
2022-12-13T16:04:06.578Z,7.29
2022-12-13T16:06:34.913Z,7.11
2022-12-13T16:09:04.838Z,7.19
2022-12-13T16:11:36.184Z,7.07
2022-12-13T16:14:34.918Z,6.94
2022-12-13T16:17:08.633Z,6.76
2022-12-13T16:19:36.798Z,6.59
2022-12-13T16:22:08.357Z,6.50
2022-12-13T16:24:37.091Z,6.48
2022-12-13T16:27:08.681Z,6.37
2022-12-13T16:29:37.403Z,6.31
2022-12-13T16:32:08.533Z,6.30
2022-12-13T16:34:37.091Z,6.12
2022-12-13T16:37:08.736Z,5.99
2022-12-13T16:39:52.770Z,6.23
2022-12-13T16:42:25.785Z,6.62
2022-12-13T16:45:11.276Z,6.80
2022-12-13T16:47:48.328Z,6.72
2022-12-13T16:50:18.473Z,6.58
2022-12-13T16:52:47.161Z,6.37
2022-12-13T16:55:15.125Z,6.30
2022-12-13T16:57:44.381Z,6.29
2022-12-13T17:00:13.829Z,6.42
2022-12-13T17:02:42.057Z,6.52
2022-12-13T17:05:10.320Z,6.41
2022-12-13T17:07:38.181Z,6.28
2022-12-13T17:10:07.786Z,6.17
2022-12-13T17:12:35.770Z,6.12
2022-12-13T17:15:05.570Z,6.00
2022-12-13T17:17:34.207Z,5.95
2022-12-13T17:20:02.143Z,5.84
2022-12-13T17:22:30.063Z,5.80
2022-12-13T17:24:57.832Z,5.84
2022-12-13T17:27:25.830Z,5.68
2022-12-13T17:29:53.660Z,5.54
2022-12-13T17:32:23.056Z,5.54
2022-12-13T17:34:52.071Z,5.26
2022-12-13T17:37:20.794Z,5.38
2022-12-13T17:39:48.715Z,5.49
2022-12-13T17:42:16.791Z,5.56
2022-12-13T17:44:44.590Z,5.37
2022-12-13T17:47:13.170Z,5.32
2022-12-13T17:49:42.390Z,4.62
2022-12-13T17:52:10.443Z,4.41
2022-12-13T17:54:38.273Z,4.52
2022-12-13T17:57:06.338Z,4.48
2022-12-13T17:59:37.029Z,4.16
2022-12-13T18:02:11.199Z,4.18
2022-12-13T18:04:39.083Z,4.38
2022-12-13T18:07:08.365Z,3.66
2022-12-13T18:09:36.291Z,3.65
2022-12-13T18:12:04.270Z,3.87
2022-12-13T18:14:32.052Z,4.35
2022-12-13T18:16:59.934Z,5.08
2022-12-13T18:19:30.214Z,5.33
2022-12-13T18:21:58.152Z,4.88
2022-12-13T18:24:27.508Z,5.00
2022-12-13T18:26:55.598Z,5.02
2022-12-13T18:29:23.438Z,5.06
2022-12-13T18:31:51.275Z,4.75
2022-12-13T18:34:19.111Z,4.86
2022-12-13T18:36:46.983Z,4.89
2022-12-13T18:39:14.943Z,5.00
2022-12-13T18:41:44.190Z,5.12
2022-12-13T18:44:13.520Z,5.37
2022-12-13T18:46:45.865Z,5.36
2022-12-13T18:49:14.445Z,5.10
2022-12-13T18:51:42.292Z,4.92
2022-12-13T18:54:10.192Z,4.68
2022-12-13T18:56:38.024Z,4.51
2022-12-13T18:59:07.239Z,4.46
2022-12-13T19:01:35.727Z,4.52
2022-12-13T19:04:03.813Z,4.21
2022-12-13T19:06:31.641Z,4.37
2022-12-13T19:08:59.555Z,4.31
2022-12-13T19:11:28.542Z,4.27
2022-12-13T19:13:56.724Z,4.32
2022-12-13T19:16:27.087Z,4.28
2022-12-13T19:18:55.119Z,4.14
2022-12-13T19:21:23.497Z,4.13
2022-12-13T19:23:57.085Z,4.09
2022-12-13T19:26:26.041Z,4.41
2022-12-13T19:28:53.888Z,4.52
2022-12-13T19:31:26.928Z,4.48
2022-12-13T19:34:00.292Z,4.36
2022-12-13T19:36:28.354Z,4.47
2022-12-13T19:38:56.878Z,4.56
2022-12-13T19:41:25.214Z,4.32
2022-12-13T19:43:54.026Z,4.29
2022-12-13T19:46:22.706Z,3.77
2022-12-13T19:48:50.898Z,4.13
2022-12-13T19:51:21.324Z,4.15
2022-12-13T19:53:49.626Z,4.10
2022-12-13T19:56:18.923Z,3.74
2022-12-13T19:58:48.205Z,4.03
2022-12-13T20:01:17.279Z,3.74
2022-12-13T20:03:46.286Z,3.87
2022-12-13T20:06:15.952Z,3.93
2022-12-13T20:08:45.587Z,3.95
2022-12-13T20:11:14.847Z,4.02
2022-12-13T20:13:42.834Z,4.00
2022-12-13T20:16:16.216Z,3.91
2022-12-13T20:18:44.083Z,3.84
2022-12-13T20:21:14.484Z,3.74
2022-12-13T20:23:48.659Z,3.77
2022-12-13T20:26:19.629Z,3.93
2022-12-13T20:28:48.036Z,3.84
2022-12-13T20:31:18.059Z,3.87
2022-12-13T20:33:45.941Z,3.77
2022-12-13T20:36:25.634Z,3.77
2022-12-13T20:38:55.585Z,3.75
2022-12-13T20:41:26.417Z,3.65
2022-12-13T20:43:55.599Z,3.68
2022-12-13T20:46:24.063Z,3.59
2022-12-13T20:48:52.293Z,3.51
2022-12-13T20:51:21.970Z,3.44
2022-12-13T20:53:50.982Z,3.49
2022-12-13T20:56:20.193Z,3.48
2022-12-13T20:58:50.358Z,3.36
2022-12-13T21:01:20.185Z,3.42
2022-12-13T21:03:48.464Z,3.37
2022-12-13T21:06:16.708Z,3.34
2022-12-13T21:08:54.366Z,3.16
2022-12-13T21:11:28.764Z,3.18
2022-12-13T21:14:05.360Z,3.21
2022-12-13T21:16:38.449Z,2.93
2022-12-13T21:19:08.510Z,2.93
2022-12-13T21:21:36.685Z,3.02
2022-12-13T21:24:05.209Z,3.03
2022-12-13T21:26:35.620Z,2.99
2022-12-13T21:29:07.423Z,2.94
2022-12-13T21:31:35.926Z,2.74
2022-12-13T21:34:05.267Z,2.58
2022-12-13T21:36:34.685Z,2.53
2022-12-13T21:39:04.694Z,2.49
2022-12-13T21:41:33.260Z,2.39
2022-12-13T21:44:01.188Z,2.31
2022-12-13T21:47:09.666Z,2.24
2022-12-13T21:49:18.852Z,2.51
2022-12-13T21:51:48.428Z,2.58
2022-12-13T21:54:17.814Z,2.62
2022-12-13T21:57:03.193Z,2.76
2022-12-13T21:59:31.641Z,2.50
2022-12-13T22:02:15.610Z,2.37
2022-12-13T22:04:45.317Z,2.17
2022-12-13T22:07:14.470Z,2.25
2022-12-13T22:09:42.462Z,2.22
2022-12-13T22:12:12.123Z,2.22
2022-12-13T22:14:39.925Z,2.17
2022-12-13T22:17:09.166Z,2.09
2022-12-13T22:19:36.993Z,2.36
2022-12-13T22:22:04.889Z,2.45
2022-12-13T22:24:32.761Z,2.31
2022-12-13T22:27:00.646Z,2.27
2022-12-13T22:29:28.830Z,2.29
2022-12-13T22:31:56.661Z,2.19
2022-12-13T22:34:25.864Z,2.14
2022-12-13T22:36:53.972Z,2.21
2022-12-13T22:39:22.869Z,2.20
2022-12-13T22:41:52.070Z,2.17
2022-12-13T22:44:20.923Z,2.21
2022-12-13T22:46:48.780Z,2.33
2022-12-13T22:49:16.705Z,2.44
2022-12-13T22:51:45.877Z,2.28
2022-12-13T22:54:13.688Z,2.24
2022-12-13T22:56:41.480Z,2.19
2022-12-13T22:59:09.342Z,2.20
2022-12-13T23:01:38.906Z,2.18
2022-12-13T23:04:07.638Z,2.17
2022-12-13T23:06:37.550Z,2.09
2022-12-13T23:09:09.139Z,2.08
2022-12-13T23:11:54.737Z,2.03
2022-12-13T23:14:29.411Z,2.13
2022-12-13T23:16:57.428Z,2.11
2022-12-13T23:19:41.616Z,2.15
2022-12-13T23:22:13.758Z,2.12
2022-12-13T23:24:42.973Z,2.24
2022-12-13T23:27:10.936Z,2.29
2022-12-13T23:29:39.163Z,2.30
2022-12-13T23:32:07.002Z,2.29
2022-12-13T23:34:34.989Z,2.26
2022-12-13T23:37:02.885Z,2.30
2022-12-13T23:39:30.718Z,2.33
2022-12-13T23:41:59.917Z,2.24
2022-12-13T23:44:27.720Z,2.24
2022-12-13T23:46:55.558Z,2.19
2022-12-13T23:49:23.457Z,2.18
2022-12-13T23:51:51.296Z,2.14
2022-12-13T23:54:20.159Z,2.19
2022-12-13T23:56:48.190Z,2.24
2022-12-13T23:59:18.886Z,2.27
